createdAt,value
2023-04-23T00:02:03.187Z,39.67
2023-04-23T00:04:34.991Z,38.22
2023-04-23T00:07:03.416Z,42.63
2023-04-23T00:09:33.458Z,40.30
2023-04-23T00:12:01.849Z,41.03
2023-04-23T00:14:28.927Z,40.47
2023-04-23T00:16:56.073Z,37.78
2023-04-23T00:19:22.781Z,37.88
2023-04-23T00:21:49.504Z,39.65
2023-04-23T00:24:16.360Z,41.40
2023-04-23T00:26:43.176Z,36.35
2023-04-23T00:29:09.926Z,39.38
2023-04-23T00:31:36.756Z,36.20
2023-04-23T00:34:03.579Z,35.33
2023-04-23T00:36:30.523Z,35.15
2023-04-23T00:38:57.317Z,37.65
2023-04-23T00:41:27.340Z,35.33
2023-04-23T00:43:57.225Z,34.45
2023-04-23T00:46:26.236Z,35.22
2023-04-23T00:48:53.439Z,30.15
2023-04-23T00:51:23.118Z,32.53
2023-04-23T00:53:50.351Z,36.30
2023-04-23T00:56:17.980Z,34.80
2023-04-23T00:58:45.500Z,29.88
2023-04-23T01:01:12.722Z,30.92
2023-04-23T01:03:42.352Z,32.15
2023-04-23T01:06:09.313Z,30.70
2023-04-23T01:08:36.507Z,29.27
2023-04-23T01:11:03.671Z,30.05
2023-04-23T01:13:30.652Z,30.10
2023-04-23T01:15:57.731Z,27.35
2023-04-23T01:18:24.718Z,35.22
2023-04-23T01:20:51.824Z,28.90
2023-04-23T01:23:19.224Z,26.48
2023-04-23T01:25:46.558Z,27.63
2023-04-23T01:28:13.841Z,28.58
2023-04-23T01:30:43.510Z,31.05
2023-04-23T01:33:11.586Z,28.35
2023-04-23T01:35:40.723Z,30.00
2023-04-23T01:38:10.422Z,31.45
2023-04-23T01:40:38.133Z,27.52
2023-04-23T01:43:06.305Z,27.90
2023-04-23T01:45:33.371Z,25.17
2023-04-23T01:48:01.003Z,28.27
2023-04-23T01:50:29.768Z,28.60
2023-04-23T01:52:56.516Z,25.77
2023-04-23T01:55:23.774Z,26.60
2023-04-23T01:57:51.151Z,28.98
2023-04-23T02:00:18.767Z,28.42
2023-04-23T02:02:45.653Z,26.42
2023-04-23T02:05:20.642Z,26.80
2023-04-23T02:07:49.850Z,29.63
2023-04-23T02:10:16.768Z,28.70
2023-04-23T02:12:44.779Z,29.67
2023-04-23T02:15:12.164Z,29.35
2023-04-23T02:17:40.171Z,26.05
2023-04-23T02:20:10.817Z,24.70
2023-04-23T02:22:41.928Z,26.88
2023-04-23T02:25:09.501Z,26.35
2023-04-23T02:27:36.544Z,28.15
2023-04-23T02:30:03.734Z,26.02
2023-04-23T02:32:31.178Z,22.15
2023-04-23T02:34:59.617Z,23.05
2023-04-23T02:37:26.942Z,22.58
2023-04-23T02:39:53.783Z,24.92
2023-04-23T02:42:20.651Z,23.95
2023-04-23T02:44:47.297Z,21.10
2023-04-23T02:47:16.550Z,27.65
2023-04-23T02:49:43.239Z,24.75
2023-04-23T02:52:10.505Z,26.85
2023-04-23T02:54:37.348Z,24.40
2023-04-23T02:57:04.891Z,23.67
2023-04-23T02:59:31.725Z,26.23
2023-04-23T03:01:58.423Z,22.73
2023-04-23T03:04:25.208Z,20.83
2023-04-23T03:06:51.920Z,25.40
2023-04-23T03:09:18.666Z,25.42
2023-04-23T03:11:45.449Z,30.17
2023-04-23T03:14:12.223Z,24.20
2023-04-23T03:16:39.039Z,23.95
2023-04-23T03:19:05.822Z,24.98
2023-04-23T03:21:32.557Z,22.98
2023-04-23T03:24:01.451Z,23.25
2023-04-23T03:26:28.265Z,22.50
2023-04-23T03:28:54.962Z,26.75
2023-04-23T03:31:21.723Z,25.35
2023-04-23T03:33:48.457Z,23.00
2023-04-23T03:36:15.805Z,23.67
2023-04-23T03:38:42.547Z,22.08
2023-04-23T03:41:09.224Z,25.65
2023-04-23T03:43:35.951Z,24.55
2023-04-23T03:46:02.757Z,24.85
2023-04-23T03:48:29.487Z,22.63
2023-04-23T03:50:56.166Z,23.60
2023-04-23T03:53:22.879Z,23.67
2023-04-23T03:55:49.575Z,25.75
2023-04-23T03:58:17.040Z,24.42
2023-04-23T04:00:44.000Z,21.98
2023-04-23T04:03:10.768Z,23.98
2023-04-23T04:05:37.762Z,25.45
2023-04-23T04:08:05.208Z,25.20
2023-04-23T04:10:31.897Z,26.65
2023-04-23T04:12:58.605Z,23.52
2023-04-23T04:15:25.441Z,28.17
2023-04-23T04:17:52.179Z,23.80
2023-04-23T04:20:19.404Z,25.00
2023-04-23T04:22:46.836Z,23.83
2023-04-23T04:25:14.148Z,23.10
2023-04-23T04:27:41.548Z,26.25
2023-04-23T04:30:09.445Z,25.15
2023-04-23T04:32:38.708Z,24.98
2023-04-23T04:35:06.520Z,27.08
2023-04-23T04:37:33.843Z,24.63
2023-04-23T04:40:01.507Z,27.00
2023-04-23T04:42:28.261Z,27.55
2023-04-23T04:44:54.982Z,26.10
2023-04-23T04:47:21.737Z,25.73
2023-04-23T04:49:48.791Z,26.45
2023-04-23T04:52:15.548Z,22.63
2023-04-23T04:54:42.764Z,25.70
2023-04-23T04:57:09.628Z,21.40
2023-04-23T04:59:36.779Z,26.27
2023-04-23T05:02:03.606Z,24.88
2023-04-23T05:04:30.563Z,25.13
2023-04-23T05:06:57.277Z,25.05
2023-04-23T05:09:24.875Z,26.67
2023-04-23T05:11:51.970Z,24.27
2023-04-23T05:14:18.642Z,24.17
2023-04-23T05:16:45.552Z,22.00
2023-04-23T05:19:12.395Z,21.52
2023-04-23T05:21:39.762Z,23.88
2023-04-23T05:24:06.599Z,22.05
2023-04-23T05:26:33.421Z,21.60
2023-04-23T05:29:00.115Z,24.40
2023-04-23T05:31:28.831Z,20.90
2023-04-23T05:33:56.187Z,24.20
2023-04-23T05:36:22.873Z,25.63
2023-04-23T05:38:49.706Z,21.15
2023-04-23T05:41:16.410Z,22.35
2023-04-23T05:43:43.241Z,22.58
2023-04-23T05:46:10.218Z,23.10
2023-04-23T05:48:37.062Z,20.25
2023-04-23T05:51:03.956Z,18.67
2023-04-23T05:53:30.763Z,21.33
2023-04-23T05:55:57.442Z,20.60
2023-04-23T05:58:24.198Z,17.45
2023-04-23T06:00:52.904Z,19.35
2023-04-23T06:03:20.074Z,16.77
2023-04-23T06:05:47.097Z,20.70
2023-04-23T06:08:13.932Z,19.10
2023-04-23T06:10:40.817Z,17.63
2023-04-23T06:13:07.729Z,17.35
2023-04-23T06:15:34.485Z,19.88
2023-04-23T06:18:01.210Z,14.82
2023-04-23T06:20:27.964Z,14.85
2023-04-23T06:22:54.830Z,16.42
2023-04-23T06:25:21.647Z,17.13
2023-04-23T06:27:48.338Z,15.00
2023-04-23T06:30:15.105Z,17.05
2023-04-23T06:32:41.853Z,16.88
2023-04-23T06:35:09.137Z,15.50
2023-04-23T06:37:36.039Z,15.15
2023-04-23T06:40:03.015Z,16.25
2023-04-23T06:42:29.792Z,14.45
2023-04-23T06:44:59.213Z,17.88
2023-04-23T06:47:25.948Z,16.57
2023-04-23T06:49:52.646Z,11.52
2023-04-23T06:52:19.395Z,12.25
2023-04-23T06:54:46.179Z,18.30
2023-04-23T06:57:13.023Z,16.33
2023-04-23T06:59:39.985Z,18.27
2023-04-23T07:02:07.470Z,11.10
2023-04-23T07:04:34.208Z,15.55
2023-04-23T07:07:01.323Z,15.82
2023-04-23T07:09:28.892Z,15.95
2023-04-23T07:11:55.675Z,16.85
2023-04-23T07:14:22.536Z,14.10
2023-04-23T07:16:49.313Z,14.00
2023-04-23T07:19:16.085Z,15.82
2023-04-23T07:21:43.244Z,16.52
2023-04-23T07:24:10.378Z,16.88
2023-04-23T07:26:39.122Z,17.35
2023-04-23T07:29:10.563Z,15.18
2023-04-23T07:31:39.301Z,12.95
2023-04-23T07:34:06.794Z,16.30
2023-04-23T07:36:33.617Z,14.98
2023-04-23T07:39:00.635Z,13.88
2023-04-23T07:41:27.519Z,15.38
2023-04-23T07:43:54.265Z,14.00
2023-04-23T07:46:21.491Z,15.98
2023-04-23T07:48:48.345Z,12.45
2023-04-23T07:51:16.210Z,13.35
2023-04-23T07:53:44.148Z,13.65
2023-04-23T07:56:11.044Z,13.75
2023-04-23T07:58:38.484Z,14.52
2023-04-23T08:01:07.523Z,12.52
2023-04-23T08:03:34.416Z,12.57
2023-04-23T08:06:01.380Z,16.05
2023-04-23T08:08:28.082Z,14.27
2023-04-23T08:10:56.169Z,14.45
2023-04-23T08:13:22.986Z,10.98
2023-04-23T08:15:49.733Z,14.02
2023-04-23T08:18:16.484Z,10.27
2023-04-23T08:20:43.239Z,15.02
2023-04-23T08:23:10.029Z,13.45
2023-04-23T08:25:36.860Z,16.92
2023-04-23T08:28:04.182Z,12.35
2023-04-23T08:30:31.057Z,14.50
2023-04-23T08:32:58.194Z,13.88
2023-04-23T08:35:25.425Z,13.73
2023-04-23T08:37:52.134Z,14.07
2023-04-23T08:40:19.101Z,12.75
2023-04-23T08:42:55.311Z,10.70
2023-04-23T08:45:22.138Z,9.52
2023-04-23T08:47:51.965Z,11.52
2023-04-23T08:50:20.142Z,14.77
2023-04-23T08:52:50.506Z,11.43
2023-04-23T08:57:46.940Z,12.70
2023-04-23T09:00:15.588Z,10.88
2023-04-23T09:02:45.245Z,11.32
2023-04-23T09:05:14.785Z,11.35
2023-04-23T09:07:42.693Z,12.50
2023-04-23T09:10:13.707Z,8.52
2023-04-23T09:12:43.744Z,11.15
2023-04-23T09:15:11.331Z,12.27
2023-04-23T09:17:46.432Z,8.50
2023-04-23T09:20:15.599Z,12.45
2023-04-23T09:22:47.384Z,9.63
2023-04-23T09:25:18.450Z,9.68
2023-04-23T09:27:46.912Z,11.68
2023-04-23T09:30:14.139Z,12.25
2023-04-23T09:32:42.662Z,7.32
2023-04-23T09:35:12.193Z,10.32
2023-04-23T09:37:42.508Z,12.52
2023-04-23T09:40:10.581Z,11.38
2023-04-23T09:42:37.875Z,13.00
2023-04-23T09:45:11.488Z,11.20
2023-04-23T09:47:49.681Z,9.13
2023-04-23T09:50:18.749Z,8.98
2023-04-23T09:52:45.721Z,9.95
2023-04-23T09:55:12.405Z,9.77
2023-04-23T09:57:41.378Z,14.30
2023-04-23T10:00:17.099Z,13.23
2023-04-23T10:02:50.064Z,11.07
2023-04-23T10:05:24.881Z,12.32
2023-04-23T10:07:56.362Z,11.35
2023-04-23T10:10:24.962Z,9.13
2023-04-23T10:12:57.138Z,11.68
2023-04-23T10:15:26.993Z,9.30
2023-04-23T10:20:22.951Z,9.82
2023-04-23T10:22:50.648Z,10.82
2023-04-23T10:25:21.241Z,10.15
2023-04-23T10:27:54.406Z,11.52
2023-04-23T10:30:22.725Z,10.30
2023-04-23T10:32:50.659Z,11.45
2023-04-23T10:35:17.725Z,14.40
2023-04-23T10:37:46.740Z,9.93
2023-04-23T10:40:16.381Z,13.73
2023-04-23T10:42:45.079Z,10.60
2023-04-23T10:45:24.772Z,12.02
2023-04-23T10:47:57.608Z,11.63
2023-04-23T10:50:36.197Z,11.35
2023-04-23T10:53:04.162Z,12.20
2023-04-23T10:55:32.347Z,10.73
2023-04-23T10:58:07.895Z,14.10
2023-04-23T11:00:46.258Z,13.13
2023-04-23T11:03:41.604Z,12.45
2023-04-23T11:06:15.640Z,11.70
2023-04-23T11:08:54.076Z,10.68
2023-04-23T11:11:41.350Z,14.13
2023-04-23T11:14:16.804Z,13.55
2023-04-23T11:16:43.785Z,16.80
2023-04-23T11:19:12.591Z,16.65
2023-04-23T11:22:01.593Z,26.70
2023-04-23T11:24:33.497Z,13.90
2023-04-23T11:27:01.180Z,13.85
2023-04-23T11:29:29.104Z,10.35
2023-04-23T11:34:26.386Z,8.35
2023-04-23T11:36:57.389Z,13.90
2023-04-23T11:39:27.379Z,12.57
2023-04-23T11:44:22.064Z,14.02
2023-04-23T11:46:50.175Z,15.30
2023-04-23T11:49:20.591Z,13.35
2023-04-23T11:51:47.962Z,13.25
2023-04-23T11:54:15.071Z,12.65
2023-04-23T11:56:42.636Z,9.50
2023-04-23T11:59:09.642Z,9.60
2023-04-23T12:01:46.927Z,14.65
2023-04-23T12:04:28.569Z,14.98
2023-04-23T12:06:57.167Z,9.82
2023-04-23T12:09:26.348Z,9.10
2023-04-23T12:11:53.395Z,9.87
2023-04-23T12:14:28.301Z,13.10
2023-04-23T12:16:55.993Z,15.63
2023-04-23T12:19:28.496Z,13.43
2023-04-23T12:22:00.673Z,10.52
2023-04-23T12:24:29.980Z,14.05
2023-04-23T12:27:02.450Z,10.88
2023-04-23T12:29:32.604Z,14.02
2023-04-23T12:34:27.739Z,10.95
2023-04-23T12:36:57.377Z,15.25
2023-04-23T12:39:30.127Z,13.75
2023-04-23T12:42:02.967Z,14.15
2023-04-23T12:44:30.254Z,15.88
2023-04-23T12:46:58.297Z,10.20
2023-04-23T12:49:29.908Z,13.63
2023-04-23T12:51:57.919Z,14.43
2023-04-23T12:54:26.620Z,11.75
2023-04-23T12:56:53.951Z,12.82
2023-04-23T12:59:20.847Z,13.48
2023-04-23T13:01:48.244Z,13.43
2023-04-23T13:04:15.181Z,12.85
2023-04-23T13:06:42.386Z,12.75
2023-04-23T13:09:10.343Z,12.75
2023-04-23T13:11:38.979Z,13.07
2023-04-23T13:14:06.566Z,13.73
2023-04-23T13:16:33.917Z,10.02
2023-04-23T13:19:01.246Z,10.63
2023-04-23T13:21:27.960Z,11.45
2023-04-23T13:23:54.769Z,12.65
2023-04-23T13:26:21.574Z,10.95
2023-04-23T13:28:48.314Z,11.05
2023-04-23T13:31:15.069Z,13.60
2023-04-23T13:33:42.174Z,21.67
2023-04-23T13:36:09.261Z,11.65
2023-04-23T13:38:36.380Z,15.98
2023-04-23T13:41:03.181Z,13.77
2023-04-23T13:43:29.922Z,21.52
2023-04-23T13:45:56.773Z,15.07
2023-04-23T13:48:28.548Z,12.73
2023-04-23T13:50:55.801Z,11.68
2023-04-23T13:53:22.873Z,10.70
2023-04-23T13:55:49.696Z,14.30
2023-04-23T13:58:16.742Z,11.90
2023-04-23T14:00:43.896Z,11.85
2023-04-23T14:03:12.086Z,11.90
2023-04-23T14:05:38.836Z,10.18
2023-04-23T14:08:05.740Z,10.45
2023-04-23T14:10:32.795Z,16.77
2023-04-23T14:12:59.587Z,11.40
2023-04-23T14:15:26.510Z,13.52
2023-04-23T14:17:53.320Z,8.85
2023-04-23T14:20:21.813Z,9.80
2023-04-23T14:23:01.298Z,11.57
2023-04-23T14:25:35.980Z,10.57
2023-04-23T14:28:23.678Z,15.10
2023-04-23T14:30:55.567Z,15.98
2023-04-23T14:33:22.603Z,12.98
2023-04-23T14:35:49.396Z,12.38
2023-04-23T14:38:16.150Z,10.35
2023-04-23T14:40:42.808Z,13.10
2023-04-23T14:43:15.612Z,12.45
2023-04-23T14:45:43.043Z,12.13
2023-04-23T14:48:09.838Z,12.50
2023-04-23T14:50:36.723Z,12.10
2023-04-23T14:53:07.090Z,14.88
2023-04-23T14:55:34.274Z,15.60
2023-04-23T14:58:01.492Z,11.68
2023-04-23T15:00:28.567Z,16.48
2023-04-23T15:02:56.564Z,13.35
2023-04-23T15:05:23.672Z,12.52
2023-04-23T15:07:51.757Z,12.65
2023-04-23T15:10:20.379Z,12.70
2023-04-23T15:13:01.978Z,10.98
2023-04-23T15:15:47.306Z,13.77
2023-04-23T15:18:15.149Z,14.27
2023-04-23T15:20:43.529Z,12.30
2023-04-23T15:23:10.554Z,10.63
2023-04-23T15:25:37.790Z,13.60
2023-04-23T15:28:05.642Z,9.30
2023-04-23T15:30:32.458Z,11.02
2023-04-23T15:32:59.247Z,11.80
2023-04-23T15:35:27.123Z,10.32
2023-04-23T15:37:54.642Z,10.70
2023-04-23T15:40:21.444Z,12.57
2023-04-23T15:42:49.946Z,18.92
2023-04-23T15:45:17.125Z,12.95
2023-04-23T15:47:44.180Z,16.77
2023-04-23T15:50:11.687Z,15.55
2023-04-23T15:52:39.052Z,21.52
2023-04-23T15:55:06.490Z,11.40
2023-04-23T15:57:33.315Z,12.30
2023-04-23T16:00:00.147Z,13.25
2023-04-23T16:02:27.557Z,13.60
2023-04-23T16:04:54.456Z,17.77
2023-04-23T16:07:21.268Z,12.88
2023-04-23T16:09:48.364Z,9.20
2023-04-23T16:12:15.115Z,11.25
2023-04-23T16:14:42.694Z,11.65
2023-04-23T16:17:09.604Z,11.38
2023-04-23T16:19:36.428Z,9.30
2023-04-23T16:22:03.172Z,12.82
2023-04-23T16:24:29.924Z,10.60
2023-04-23T16:26:56.786Z,18.42
2023-04-23T16:29:23.713Z,15.05
2023-04-23T16:31:50.615Z,8.93
2023-04-23T16:34:17.569Z,16.70
2023-04-23T16:36:44.419Z,10.90
2023-04-23T16:39:11.511Z,15.23
2023-04-23T16:41:38.445Z,15.13
2023-04-23T16:44:05.399Z,14.60
2023-04-23T16:46:32.392Z,12.98
2023-04-23T16:48:59.596Z,12.90
2023-04-23T16:51:27.013Z,17.63
2023-04-23T16:53:54.166Z,15.75
2023-04-23T16:56:21.496Z,12.82
2023-04-23T16:58:48.651Z,15.80
2023-04-23T17:01:16.564Z,14.40
2023-04-23T17:03:46.522Z,14.40
2023-04-23T17:09:04.784Z,15.48
2023-04-23T17:11:32.016Z,14.50
2023-04-23T17:13:58.793Z,13.63
2023-04-23T17:16:29.247Z,19.13
2023-04-23T17:18:56.776Z,13.57
2023-04-23T17:21:24.244Z,15.70
2023-04-23T17:23:51.261Z,15.55
2023-04-23T17:26:18.021Z,18.88
2023-04-23T17:28:44.740Z,20.15
2023-04-23T17:31:11.998Z,19.85
2023-04-23T17:33:39.077Z,21.83
2023-04-23T17:36:06.062Z,16.33
2023-04-23T17:38:33.006Z,18.85
2023-04-23T17:41:00.069Z,18.90
2023-04-23T17:43:32.041Z,19.05
2023-04-23T17:45:59.226Z,20.95
2023-04-23T17:48:26.119Z,21.83
2023-04-23T17:50:54.517Z,31.63
2023-04-23T17:53:21.443Z,22.38
2023-04-23T17:55:48.270Z,20.98
2023-04-23T17:58:15.224Z,21.85
2023-04-23T18:00:42.881Z,30.13
2023-04-23T18:03:11.324Z,30.48
2023-04-23T18:05:38.296Z,26.45
2023-04-23T18:08:06.915Z,24.30
2023-04-23T18:10:34.064Z,29.98
2023-04-23T18:13:04.744Z,30.35
2023-04-23T18:15:32.315Z,39.85
2023-04-23T18:17:59.825Z,39.30
2023-04-23T18:20:26.915Z,79.60
2023-04-23T18:22:56.944Z,40.17
2023-04-23T18:25:25.266Z,36.75
2023-04-23T18:27:52.138Z,33.70
2023-04-23T18:30:23.154Z,34.47
2023-04-23T18:32:59.516Z,34.38
2023-04-23T18:35:26.520Z,27.15
2023-04-23T18:38:06.819Z,32.10
2023-04-23T18:40:35.671Z,32.22
2023-04-23T18:43:02.810Z,27.08
2023-04-23T18:45:29.490Z,32.55
2023-04-23T18:48:22.910Z,30.17
2023-04-23T18:50:50.164Z,27.65
2023-04-23T18:53:17.068Z,28.00
2023-04-23T18:55:43.873Z,31.25
2023-04-23T18:58:10.611Z,26.58
2023-04-23T19:00:37.340Z,29.08
2023-04-23T19:03:09.374Z,32.00
2023-04-23T19:05:46.748Z,32.30
2023-04-23T19:08:13.594Z,33.85
2023-04-23T19:10:40.688Z,34.90
2023-04-23T19:13:07.422Z,35.00
2023-04-23T19:15:34.316Z,36.70
2023-04-23T19:18:01.096Z,38.83
2023-04-23T19:20:30.849Z,36.47
2023-04-23T19:22:57.876Z,37.22
2023-04-23T19:25:24.746Z,38.22
2023-04-23T19:27:51.505Z,38.88
2023-04-23T19:30:18.329Z,32.00
2023-04-23T19:32:45.068Z,34.75
2023-04-23T19:35:11.789Z,33.65
2023-04-23T19:37:38.582Z,34.00
2023-04-23T19:40:07.096Z,31.27
2023-04-23T19:42:33.966Z,33.22
2023-04-23T19:45:00.783Z,37.00
2023-04-23T19:47:27.679Z,31.23
2023-04-23T19:49:54.449Z,35.90
2023-04-23T19:52:24.060Z,37.33
2023-04-23T19:54:51.111Z,37.10
2023-04-23T19:57:19.371Z,34.35
2023-04-23T19:59:46.697Z,34.90
2023-04-23T20:02:14.256Z,37.90
2023-04-23T20:04:41.536Z,36.25
2023-04-23T20:07:09.810Z,37.08
2023-04-23T20:09:36.898Z,40.17
2023-04-23T20:12:04.023Z,42.38
2023-04-23T20:14:31.091Z,42.00
2023-04-23T20:16:58.860Z,42.25
2023-04-23T20:19:26.137Z,42.33
2023-04-23T20:21:53.463Z,41.40
2023-04-23T20:24:23.789Z,40.55
2023-04-23T20:26:51.366Z,39.00
2023-04-23T20:29:18.065Z,41.08
2023-04-23T20:31:49.696Z,38.85
2023-04-23T20:34:17.181Z,39.53
2023-04-23T20:36:47.190Z,41.15
2023-04-23T20:39:14.898Z,36.40
2023-04-23T20:41:41.790Z,35.40
2023-04-23T20:44:09.125Z,35.60
2023-04-23T20:46:37.114Z,33.60
2023-04-23T20:49:04.477Z,34.70
2023-04-23T20:51:34.155Z,33.70
2023-04-23T20:54:01.926Z,33.95
2023-04-23T20:56:29.158Z,32.53
2023-04-23T20:58:57.668Z,36.35
2023-04-23T21:01:26.056Z,32.97
2023-04-23T21:03:53.992Z,35.67
2023-04-23T21:06:22.057Z,37.58
2023-04-23T21:08:49.037Z,32.85
2023-04-23T21:11:18.172Z,32.53
2023-04-23T21:13:46.112Z,30.98
2023-04-23T21:16:13.604Z,36.88
2023-04-23T21:18:41.008Z,31.42
2023-04-23T21:21:09.532Z,31.98
2023-04-23T21:23:36.304Z,31.00
2023-04-23T21:26:04.020Z,32.47
2023-04-23T21:28:31.953Z,30.35
2023-04-23T21:31:06.819Z,31.15
2023-04-23T21:33:34.197Z,28.67
2023-04-23T21:36:01.110Z,28.40
2023-04-23T21:38:27.978Z,30.35
2023-04-23T21:40:55.371Z,30.58
2023-04-23T21:43:24.275Z,29.25
2023-04-23T21:45:51.058Z,30.42
2023-04-23T21:48:17.937Z,28.63
2023-04-23T21:50:44.678Z,30.75
2023-04-23T21:53:13.189Z,27.15
2023-04-23T21:55:39.976Z,33.42
2023-04-23T21:58:17.134Z,29.77
2023-04-23T22:00:45.374Z,29.75
2023-04-23T22:03:12.756Z,27.55
2023-04-23T22:05:45.785Z,29.08
2023-04-23T22:08:12.879Z,27.95
2023-04-23T22:10:43.152Z,28.70
2023-04-23T22:13:11.236Z,25.10
2023-04-23T22:15:38.367Z,28.85
2023-04-23T22:18:05.511Z,28.48
2023-04-23T22:20:32.437Z,23.50
2023-04-23T22:22:59.421Z,26.23
2023-04-23T22:25:26.275Z,27.92
2023-04-23T22:27:53.205Z,24.40
2023-04-23T22:30:20.522Z,23.83
2023-04-23T22:32:47.354Z,28.20
2023-04-23T22:35:14.295Z,25.15
2023-04-23T22:37:41.277Z,26.85
2023-04-23T22:40:09.494Z,25.95
2023-04-23T22:42:37.414Z,24.60
2023-04-23T22:45:04.843Z,25.85
2023-04-23T22:47:31.810Z,24.40
2023-04-23T22:49:59.054Z,24.02
2023-04-23T22:52:26.862Z,25.23
2023-04-23T22:54:54.958Z,24.80
2023-04-23T22:57:21.861Z,26.65
2023-04-23T22:59:48.664Z,26.42
2023-04-23T23:02:15.985Z,26.95
2023-04-23T23:04:42.943Z,25.27
2023-04-23T23:07:10.005Z,24.00
2023-04-23T23:09:36.687Z,25.05
2023-04-23T23:12:04.420Z,25.95
2023-04-23T23:14:33.240Z,25.08
2023-04-23T23:17:00.048Z,24.10
2023-04-23T23:19:27.299Z,27.35
2023-04-23T23:21:54.355Z,26.23
2023-04-23T23:24:22.158Z,24.02
2023-04-23T23:26:49.377Z,26.85
2023-04-23T23:29:16.223Z,24.90
2023-04-23T23:31:43.216Z,24.58
2023-04-23T23:34:10.094Z,23.30
2023-04-23T23:36:36.737Z,29.95
2023-04-23T23:39:04.464Z,23.55
2023-04-23T23:41:31.129Z,22.15
2023-04-23T23:43:57.819Z,22.45
2023-04-23T23:46:25.487Z,24.40
2023-04-23T23:48:53.305Z,22.25
2023-04-23T23:51:20.272Z,26.70
2023-04-23T23:53:47.009Z,28.75
2023-04-23T23:56:13.981Z,25.42
2023-04-23T23:58:40.757Z,26.02
